sensor_id;sensor_type;location;lat;lon;timestamp;P1;durP1;ratioP1;P2;durP2;ratioP2
1436;SDS011;712;51.026;13.792;2024-03-23T00:54:05;11.55;;;6.13;;
1436;SDS011;712;51.026;13.792;2024-03-23T00:56:30;11.87;;;6.37;;
1436;SDS011;712;51.026;13.792;2024-03-23T00:58:56;11.90;;;6.20;;
1436;SDS011;712;51.026;13.792;2024-03-23T01:01:21;11.27;;;6.28;;
1436;SDS011;712;51.026;13.792;2024-03-23T01:03:46;13.13;;;6.57;;
1436;SDS011;712;51.026;13.792;2024-03-23T01:06:11;11.77;;;6.50;;
1436;SDS011;712;51.026;13.792;2024-03-23T01:08:36;12.15;;;6.60;;
1436;SDS011;712;51.026;13.792;2024-03-23T01:11:01;10.07;;;5.82;;
1436;SDS011;712;51.026;13.792;2024-03-23T01:13:27;11.90;;;6.32;;
1436;SDS011;712;51.026;13.792;2024-03-23T01:15:53;13.20;;;6.47;;
1436;SDS011;712;51.026;13.792;2024-03-23T01:18:19;13.75;;;6.72;;
1436;SDS011;712;51.026;13.792;2024-03-23T01:20:44;11.75;;;6.38;;
1436;SDS011;712;51.026;13.792;2024-03-23T01:23:10;13.68;;;6.75;;
1436;SDS011;712;51.026;13.792;2024-03-23T01:25:35;13.18;;;6.85;;
1436;SDS011;712;51.026;13.792;2024-03-23T01:28:00;11.60;;;6.22;;
1436;SDS011;712;51.026;13.792;2024-03-23T01:30:27;13.90;;;7.07;;
1436;SDS011;712;51.026;13.792;2024-03-23T01:32:52;13.15;;;7.25;;
1436;SDS011;712;51.026;13.792;2024-03-23T01:35:17;12.80;;;6.83;;
1436;SDS011;712;51.026;13.792;2024-03-23T01:37:42;13.57;;;7.40;;
1436;SDS011;712;51.026;13.792;2024-03-23T01:40:07;14.95;;;7.20;;
1436;SDS011;712;51.026;13.792;2024-03-23T01:42:33;16.10;;;8.95;;
1436;SDS011;712;51.026;13.792;2024-03-23T01:44:58;15.77;;;7.90;;
1436;SDS011;712;51.026;13.792;2024-03-23T01:47:23;17.37;;;8.37;;
1436;SDS011;712;51.026;13.792;2024-03-23T01:49:48;14.90;;;7.83;;
1436;SDS011;712;51.026;13.792;2024-03-23T01:52:13;16.70;;;8.70;;
1436;SDS011;712;51.026;13.792;2024-03-23T01:54:39;17.77;;;8.73;;
1436;SDS011;712;51.026;13.792;2024-03-23T01:57:04;19.73;;;8.20;;
1436;SDS011;712;51.026;13.792;2024-03-23T01:59:29;17.00;;;8.40;;
1436;SDS011;712;51.026;13.792;2024-03-23T02:01:54;16.90;;;8.33;;
1436;SDS011;712;51.026;13.792;2024-03-23T02:04:19;17.90;;;9.18;;
1436;SDS011;712;51.026;13.792;2024-03-23T02:06:45;17.02;;;9.00;;
1436;SDS011;712;51.026;13.792;2024-03-23T02:09:10;19.83;;;10.30;;
1436;SDS011;712;51.026;13.792;2024-03-23T02:11:35;16.73;;;9.40;;
1436;SDS011;712;51.026;13.792;2024-03-23T02:14:00;16.95;;;9.20;;
1436;SDS011;712;51.026;13.792;2024-03-23T02:16:25;18.13;;;9.02;;
1436;SDS011;712;51.026;13.792;2024-03-23T02:18:50;18.45;;;9.27;;
1436;SDS011;712;51.026;13.792;2024-03-23T02:21:16;19.00;;;9.37;;
1436;SDS011;712;51.026;13.792;2024-03-23T02:23:42;16.65;;;9.13;;
1436;SDS011;712;51.026;13.792;2024-03-23T02:26:09;18.90;;;9.63;;
1436;SDS011;712;51.026;13.792;2024-03-23T02:28:34;17.13;;;9.45;;
1436;SDS011;712;51.026;13.792;2024-03-23T02:30:59;18.77;;;10.02;;
1436;SDS011;712;51.026;13.792;2024-03-23T02:33:26;18.20;;;9.45;;
1436;SDS011;712;51.026;13.792;2024-03-23T02:35:55;19.13;;;9.68;;
1436;SDS011;712;51.026;13.792;2024-03-23T02:38:20;18.17;;;10.10;;
1436;SDS011;712;51.026;13.792;2024-03-23T02:40:46;20.23;;;10.15;;
1436;SDS011;712;51.026;13.792;2024-03-23T02:43:13;17.57;;;9.50;;
1436;SDS011;712;51.026;13.792;2024-03-23T02:45:38;22.17;;;11.07;;
1436;SDS011;712;51.026;13.792;2024-03-23T02:48:04;19.20;;;9.98;;
1436;SDS011;712;51.026;13.792;2024-03-23T02:50:31;18.38;;;10.18;;
1436;SDS011;712;51.026;13.792;2024-03-23T02:52:56;19.45;;;10.20;;
1436;SDS011;712;51.026;13.792;2024-03-23T02:55:21;18.47;;;10.30;;
1436;SDS011;712;51.026;13.792;2024-03-23T02:57:46;18.07;;;10.57;;
1436;SDS011;712;51.026;13.792;2024-03-23T03:00:12;18.77;;;9.27;;
1436;SDS011;712;51.026;13.792;2024-03-23T03:02:37;21.40;;;10.35;;
1436;SDS011;712;51.026;13.792;2024-03-23T03:05:03;19.70;;;10.33;;
1436;SDS011;712;51.026;13.792;2024-03-23T03:07:29;16.05;;;9.13;;
1436;SDS011;712;51.026;13.792;2024-03-23T03:09:55;18.27;;;9.30;;
1436;SDS011;712;51.026;13.792;2024-03-23T03:12:20;19.37;;;9.47;;
1436;SDS011;712;51.026;13.792;2024-03-23T03:14:45;21.23;;;11.32;;
1436;SDS011;712;51.026;13.792;2024-03-23T03:17:10;20.67;;;10.65;;
1436;SDS011;712;51.026;13.792;2024-03-23T03:19:35;22.25;;;11.02;;
1436;SDS011;712;51.026;13.792;2024-03-23T03:22:01;22.60;;;10.87;;
1436;SDS011;712;51.026;13.792;2024-03-23T03:24:26;20.27;;;10.27;;
1436;SDS011;712;51.026;13.792;2024-03-23T03:26:51;19.85;;;10.75;;
1436;SDS011;712;51.026;13.792;2024-03-23T03:29:16;24.60;;;10.43;;
1436;SDS011;712;51.026;13.792;2024-03-23T03:31:42;20.92;;;10.98;;
1436;SDS011;712;51.026;13.792;2024-03-23T03:34:07;19.52;;;9.70;;
1436;SDS011;712;51.026;13.792;2024-03-23T03:36:32;17.87;;;9.50;;
1436;SDS011;712;51.026;13.792;2024-03-23T03:38:57;16.70;;;9.15;;
1436;SDS011;712;51.026;13.792;2024-03-23T03:41:23;19.80;;;10.60;;
1436;SDS011;712;51.026;13.792;2024-03-23T03:43:48;18.63;;;9.35;;
1436;SDS011;712;51.026;13.792;2024-03-23T03:46:13;18.83;;;9.65;;
1436;SDS011;712;51.026;13.792;2024-03-23T03:48:38;21.23;;;10.35;;
1436;SDS011;712;51.026;13.792;2024-03-23T03:51:04;18.20;;;9.93;;
1436;SDS011;712;51.026;13.792;2024-03-23T03:53:29;16.42;;;9.30;;
1436;SDS011;712;51.026;13.792;2024-03-23T03:55:55;18.42;;;9.45;;
1436;SDS011;712;51.026;13.792;2024-03-23T03:58:20;19.67;;;10.93;;
1436;SDS011;712;51.026;13.792;2024-03-23T04:00:46;21.08;;;10.63;;
1436;SDS011;712;51.026;13.792;2024-03-23T04:03:12;18.23;;;9.30;;
1436;SDS011;712;51.026;13.792;2024-03-23T04:05:37;18.10;;;9.75;;
1436;SDS011;712;51.026;13.792;2024-03-23T04:08:03;19.57;;;11.10;;
1436;SDS011;712;51.026;13.792;2024-03-23T04:10:28;17.30;;;9.50;;
1436;SDS011;712;51.026;13.792;2024-03-23T04:12:53;17.83;;;9.45;;
1436;SDS011;712;51.026;13.792;2024-03-23T04:15:19;19.08;;;10.02;;
1436;SDS011;712;51.026;13.792;2024-03-23T04:17:44;19.90;;;10.80;;
1436;SDS011;712;51.026;13.792;2024-03-23T04:20:09;19.00;;;9.80;;
1436;SDS011;712;51.026;13.792;2024-03-23T04:22:38;20.40;;;10.90;;
1436;SDS011;712;51.026;13.792;2024-03-23T04:25:04;20.40;;;10.52;;
1436;SDS011;712;51.026;13.792;2024-03-23T04:27:34;20.63;;;11.18;;
1436;SDS011;712;51.026;13.792;2024-03-23T04:29:59;21.17;;;10.70;;
1436;SDS011;712;51.026;13.792;2024-03-23T04:32:29;20.75;;;10.70;;
1436;SDS011;712;51.026;13.792;2024-03-23T04:34:54;20.90;;;10.50;;
1436;SDS011;712;51.026;13.792;2024-03-23T04:37:20;29.37;;;13.83;;
1436;SDS011;712;51.026;13.792;2024-03-23T04:39:45;22.10;;;11.73;;
1436;SDS011;712;51.026;13.792;2024-03-23T04:42:11;27.42;;;14.25;;
1436;SDS011;712;51.026;13.792;2024-03-23T04:44:37;29.80;;;15.00;;
1436;SDS011;712;51.026;13.792;2024-03-23T04:47:02;26.80;;;13.97;;
1436;SDS011;712;51.026;13.792;2024-03-23T04:49:27;24.65;;;11.68;;
1436;SDS011;712;51.026;13.792;2024-03-23T04:51:52;24.65;;;11.73;;
1436;SDS011;712;51.026;13.792;2024-03-23T04:54:18;24.90;;;12.20;;
1436;SDS011;712;51.026;13.792;2024-03-23T04:56:43;21.83;;;11.80;;
1436;SDS011;712;51.026;13.792;2024-03-23T04:59:08;22.27;;;11.77;;
1436;SDS011;712;51.026;13.792;2024-03-23T05:01:34;26.35;;;12.45;;
1436;SDS011;712;51.026;13.792;2024-03-23T05:03:59;26.77;;;13.13;;
1436;SDS011;712;51.026;13.792;2024-03-23T05:06:24;22.17;;;11.23;;
1436;SDS011;712;51.026;13.792;2024-03-23T05:08:50;28.67;;;12.85;;
1436;SDS011;712;51.026;13.792;2024-03-23T05:11:15;23.37;;;12.40;;
1436;SDS011;712;51.026;13.792;2024-03-23T05:13:40;24.73;;;12.30;;
1436;SDS011;712;51.026;13.792;2024-03-23T05:16:06;23.65;;;11.52;;
1436;SDS011;712;51.026;13.792;2024-03-23T05:18:31;22.65;;;11.63;;
1436;SDS011;712;51.026;13.792;2024-03-23T05:20:57;25.48;;;12.13;;
1436;SDS011;712;51.026;13.792;2024-03-23T05:23:25;20.33;;;9.98;;
1436;SDS011;712;51.026;13.792;2024-03-23T05:25:50;18.83;;;9.50;;
1436;SDS011;712;51.026;13.792;2024-03-23T05:28:17;19.33;;;9.35;;
1436;SDS011;712;51.026;13.792;2024-03-23T05:30:42;18.20;;;8.88;;
1436;SDS011;712;51.026;13.792;2024-03-23T05:33:08;21.95;;;10.75;;
1436;SDS011;712;51.026;13.792;2024-03-23T05:35:33;23.77;;;12.75;;
1436;SDS011;712;51.026;13.792;2024-03-23T05:37:58;18.58;;;9.55;;
1436;SDS011;712;51.026;13.792;2024-03-23T05:40:25;21.10;;;10.40;;
1436;SDS011;712;51.026;13.792;2024-03-23T05:42:50;17.45;;;9.70;;
1436;SDS011;712;51.026;13.792;2024-03-23T05:45:18;18.40;;;9.15;;
1436;SDS011;712;51.026;13.792;2024-03-23T05:47:43;18.42;;;9.63;;
1436;SDS011;712;51.026;13.792;2024-03-23T05:50:09;17.25;;;9.40;;
1436;SDS011;712;51.026;13.792;2024-03-23T05:52:36;15.88;;;8.65;;
1436;SDS011;712;51.026;13.792;2024-03-23T05:55:01;17.02;;;9.02;;
1436;SDS011;712;51.026;13.792;2024-03-23T05:57:27;21.23;;;9.20;;
1436;SDS011;712;51.026;13.792;2024-03-23T05:59:52;17.95;;;9.93;;
1436;SDS011;712;51.026;13.792;2024-03-23T06:02:17;19.58;;;9.70;;
1436;SDS011;712;51.026;13.792;2024-03-23T06:04:44;22.30;;;10.68;;
1436;SDS011;712;51.026;13.792;2024-03-23T06:07:10;20.58;;;10.25;;
1436;SDS011;712;51.026;13.792;2024-03-23T06:09:38;22.27;;;11.43;;
1436;SDS011;712;51.026;13.792;2024-03-23T06:12:03;20.58;;;10.70;;
1436;SDS011;712;51.026;13.792;2024-03-23T06:14:29;26.67;;;13.30;;
1436;SDS011;712;51.026;13.792;2024-03-23T06:16:54;20.75;;;11.60;;
1436;SDS011;712;51.026;13.792;2024-03-23T06:19:19;24.93;;;12.30;;
1436;SDS011;712;51.026;13.792;2024-03-23T06:21:44;20.17;;;10.17;;
1436;SDS011;712;51.026;13.792;2024-03-23T06:24:10;23.58;;;11.27;;
1436;SDS011;712;51.026;13.792;2024-03-23T06:26:35;27.45;;;12.18;;
1436;SDS011;712;51.026;13.792;2024-03-23T06:29:01;28.25;;;13.63;;
1436;SDS011;712;51.026;13.792;2024-03-23T06:31:26;30.70;;;13.77;;
1436;SDS011;712;51.026;13.792;2024-03-23T06:33:51;27.83;;;13.55;;
1436;SDS011;712;51.026;13.792;2024-03-23T06:36:16;29.63;;;13.53;;
1436;SDS011;712;51.026;13.792;2024-03-23T06:38:42;33.05;;;15.00;;
1436;SDS011;712;51.026;13.792;2024-03-23T06:41:07;40.00;;;17.60;;
1436;SDS011;712;51.026;13.792;2024-03-23T06:43:32;32.92;;;15.25;;
1436;SDS011;712;51.026;13.792;2024-03-23T06:45:58;34.67;;;15.52;;
1436;SDS011;712;51.026;13.792;2024-03-23T06:48:24;31.77;;;14.48;;
1436;SDS011;712;51.026;13.792;2024-03-23T06:50:49;33.40;;;14.97;;
1436;SDS011;712;51.026;13.792;2024-03-23T06:53:15;30.33;;;14.67;;
1436;SDS011;712;51.026;13.792;2024-03-23T06:55:40;28.52;;;13.55;;
1436;SDS011;712;51.026;13.792;2024-03-23T06:58:05;29.85;;;14.18;;
1436;SDS011;712;51.026;13.792;2024-03-23T07:00:31;29.47;;;13.80;;
1436;SDS011;712;51.026;13.792;2024-03-23T07:02:57;27.88;;;13.25;;
1436;SDS011;712;51.026;13.792;2024-03-23T07:05:22;28.37;;;14.23;;
1436;SDS011;712;51.026;13.792;2024-03-23T07:07:47;26.65;;;12.90;;
1436;SDS011;712;51.026;13.792;2024-03-23T07:10:12;29.45;;;14.15;;
1436;SDS011;712;51.026;13.792;2024-03-23T07:12:37;27.63;;;13.07;;
1436;SDS011;712;51.026;13.792;2024-03-23T07:15:04;29.70;;;13.73;;
1436;SDS011;712;51.026;13.792;2024-03-23T07:17:29;27.75;;;12.85;;
1436;SDS011;712;51.026;13.792;2024-03-23T07:19:54;22.73;;;11.60;;
1436;SDS011;712;51.026;13.792;2024-03-23T07:22:19;26.70;;;12.10;;
1436;SDS011;712;51.026;13.792;2024-03-23T07:24:45;30.03;;;13.37;;
1436;SDS011;712;51.026;13.792;2024-03-23T07:27:10;25.47;;;11.60;;
1436;SDS011;712;51.026;13.792;2024-03-23T07:29:36;32.35;;;14.73;;
1436;SDS011;712;51.026;13.792;2024-03-23T07:32:01;32.28;;;14.30;;
1436;SDS011;712;51.026;13.792;2024-03-23T07:34:26;25.95;;;12.13;;
1436;SDS011;712;51.026;13.792;2024-03-23T07:36:51;22.85;;;10.82;;
1436;SDS011;712;51.026;13.792;2024-03-23T07:39:17;21.93;;;11.20;;
1436;SDS011;712;51.026;13.792;2024-03-23T07:41:44;26.67;;;12.73;;
1436;SDS011;712;51.026;13.792;2024-03-23T07:44:09;23.25;;;11.48;;
1436;SDS011;712;51.026;13.792;2024-03-23T07:46:34;23.35;;;11.93;;
1436;SDS011;712;51.026;13.792;2024-03-23T07:48:59;23.00;;;11.43;;
1436;SDS011;712;51.026;13.792;2024-03-23T07:51:25;23.43;;;11.27;;
1436;SDS011;712;51.026;13.792;2024-03-23T07:53:50;23.03;;;11.47;;
1436;SDS011;712;51.026;13.792;2024-03-23T07:56:15;25.38;;;12.55;;
1436;SDS011;712;51.026;13.792;2024-03-23T07:58:41;22.52;;;11.35;;
1436;SDS011;712;51.026;13.792;2024-03-23T08:01:07;23.08;;;11.25;;
1436;SDS011;712;51.026;13.792;2024-03-23T08:03:33;24.00;;;11.82;;
1436;SDS011;712;51.026;13.792;2024-03-23T08:05:58;23.50;;;11.93;;
1436;SDS011;712;51.026;13.792;2024-03-23T08:08:31;25.70;;;11.48;;
1436;SDS011;712;51.026;13.792;2024-03-23T08:10:56;21.48;;;10.45;;
1436;SDS011;712;51.026;13.792;2024-03-23T08:13:21;21.88;;;11.75;;
1436;SDS011;712;51.026;13.792;2024-03-23T08:15:46;21.73;;;11.25;;
1436;SDS011;712;51.026;13.792;2024-03-23T08:18:11;20.13;;;10.27;;
1436;SDS011;712;51.026;13.792;2024-03-23T08:20:37;20.02;;;10.65;;
1436;SDS011;712;51.026;13.792;2024-03-23T08:23:02;21.55;;;10.55;;
1436;SDS011;712;51.026;13.792;2024-03-23T08:25:30;16.67;;;9.53;;
1436;SDS011;712;51.026;13.792;2024-03-23T08:27:55;18.58;;;9.95;;
1436;SDS011;712;51.026;13.792;2024-03-23T08:30:20;18.55;;;9.95;;
1436;SDS011;712;51.026;13.792;2024-03-23T08:32:45;20.77;;;10.88;;
1436;SDS011;712;51.026;13.792;2024-03-23T08:35:11;18.33;;;10.10;;
1436;SDS011;712;51.026;13.792;2024-03-23T08:37:36;20.13;;;11.43;;
1436;SDS011;712;51.026;13.792;2024-03-23T08:40:01;19.17;;;10.83;;
1436;SDS011;712;51.026;13.792;2024-03-23T08:42:27;19.05;;;10.30;;
1436;SDS011;712;51.026;13.792;2024-03-23T08:44:52;18.98;;;10.32;;
1436;SDS011;712;51.026;13.792;2024-03-23T08:47:17;18.83;;;10.55;;
1436;SDS011;712;51.026;13.792;2024-03-23T08:49:42;18.67;;;10.60;;
1436;SDS011;712;51.026;13.792;2024-03-23T08:52:08;19.88;;;10.52;;
1436;SDS011;712;51.026;13.792;2024-03-23T08:54:33;19.63;;;10.75;;
1436;SDS011;712;51.026;13.792;2024-03-23T08:56:59;18.45;;;10.40;;
1436;SDS011;712;51.026;13.792;2024-03-23T08:59:24;17.93;;;10.97;;
1436;SDS011;712;51.026;13.792;2024-03-23T09:01:49;21.75;;;11.27;;
1436;SDS011;712;51.026;13.792;2024-03-23T09:04:14;20.38;;;10.52;;
1436;SDS011;712;51.026;13.792;2024-03-23T09:06:41;17.73;;;10.80;;
1436;SDS011;712;51.026;13.792;2024-03-23T09:09:07;21.17;;;10.68;;
1436;SDS011;712;51.026;13.792;2024-03-23T09:11:33;17.10;;;10.18;;
1436;SDS011;712;51.026;13.792;2024-03-23T09:13:58;16.50;;;9.70;;
1436;SDS011;712;51.026;13.792;2024-03-23T09:16:26;15.82;;;9.38;;
1436;SDS011;712;51.026;13.792;2024-03-23T09:18:52;17.80;;;9.75;;
1436;SDS011;712;51.026;13.792;2024-03-23T09:21:17;18.93;;;10.83;;
1436;SDS011;712;51.026;13.792;2024-03-23T09:23:45;18.00;;;9.80;;
1436;SDS011;712;51.026;13.792;2024-03-23T09:26:10;18.10;;;10.70;;
1436;SDS011;712;51.026;13.792;2024-03-23T09:28:37;18.17;;;11.23;;
1436;SDS011;712;51.026;13.792;2024-03-23T09:33:27;19.27;;;10.63;;
1436;SDS011;712;51.026;13.792;2024-03-23T09:38:21;16.00;;;8.27;;
1436;SDS011;712;51.026;13.792;2024-03-23T09:40:46;14.10;;;8.87;;
1436;SDS011;712;51.026;13.792;2024-03-23T09:43:17;13.77;;;7.78;;
1436;SDS011;712;51.026;13.792;2024-03-23T09:45:42;17.42;;;8.30;;
1436;SDS011;712;51.026;13.792;2024-03-23T09:48:09;15.13;;;8.52;;
1436;SDS011;712;51.026;13.792;2024-03-23T09:50:40;18.58;;;10.90;;
1436;SDS011;712;51.026;13.792;2024-03-23T09:53:09;17.13;;;10.43;;
1436;SDS011;712;51.026;13.792;2024-03-23T09:55:34;20.17;;;10.60;;
1436;SDS011;712;51.026;13.792;2024-03-23T09:58:00;20.27;;;10.63;;
1436;SDS011;712;51.026;13.792;2024-03-23T10:00:25;19.13;;;8.15;;
1436;SDS011;712;51.026;13.792;2024-03-23T10:02:51;18.42;;;6.05;;
1436;SDS011;712;51.026;13.792;2024-03-23T10:05:20;14.25;;;4.40;;
1436;SDS011;712;51.026;13.792;2024-03-23T10:07:46;12.60;;;3.83;;
1436;SDS011;712;51.026;13.792;2024-03-23T10:10:12;7.78;;;2.20;;
1436;SDS011;712;51.026;13.792;2024-03-23T10:12:40;8.25;;;2.30;;
1436;SDS011;712;51.026;13.792;2024-03-23T10:15:12;8.02;;;2.00;;
1436;SDS011;712;51.026;13.792;2024-03-23T10:17:40;4.93;;;1.33;;
1436;SDS011;712;51.026;13.792;2024-03-23T10:20:05;1.97;;;0.60;;
1436;SDS011;712;51.026;13.792;2024-03-23T10:22:36;4.20;;;0.80;;
1436;SDS011;712;51.026;13.792;2024-03-23T10:25:08;2.30;;;0.70;;
1436;SDS011;712;51.026;13.792;2024-03-23T10:27:34;3.15;;;0.80;;
1436;SDS011;712;51.026;13.792;2024-03-23T10:30:07;1.70;;;0.47;;
1436;SDS011;712;51.026;13.792;2024-03-23T10:32:32;1.08;;;0.40;;
1436;SDS011;712;51.026;13.792;2024-03-23T10:35:04;1.47;;;0.40;;
1436;SDS011;712;51.026;13.792;2024-03-23T10:37:38;0.68;;;0.20;;
1436;SDS011;712;51.026;13.792;2024-03-23T10:40:03;2.37;;;0.70;;
1436;SDS011;712;51.026;13.792;2024-03-23T10:42:29;1.42;;;0.40;;
1436;SDS011;712;51.026;13.792;2024-03-23T10:44:54;1.90;;;0.70;;
1436;SDS011;712;51.026;13.792;2024-03-23T10:47:21;1.95;;;0.60;;
1436;SDS011;712;51.026;13.792;2024-03-23T10:49:46;3.23;;;0.70;;
1436;SDS011;712;51.026;13.792;2024-03-23T10:52:13;3.10;;;0.80;;
1436;SDS011;712;51.026;13.792;2024-03-23T10:54:38;2.40;;;0.80;;
1436;SDS011;712;51.026;13.792;2024-03-23T10:57:06;2.35;;;0.70;;
1436;SDS011;712;51.026;13.792;2024-03-23T10:59:33;4.88;;;1.13;;
1436;SDS011;712;51.026;13.792;2024-03-23T11:01:59;2.85;;;0.90;;
1436;SDS011;712;51.026;13.792;2024-03-23T11:04:31;2.83;;;0.90;;
1436;SDS011;712;51.026;13.792;2024-03-23T11:06:56;1.15;;;0.60;;
1436;SDS011;712;51.026;13.792;2024-03-23T11:09:41;2.80;;;0.68;;
1436;SDS011;712;51.026;13.792;2024-03-23T11:14:52;2.50;;;0.63;;
1436;SDS011;712;51.026;13.792;2024-03-23T11:17:19;3.58;;;1.17;;
1436;SDS011;712;51.026;13.792;2024-03-23T11:19:44;5.68;;;2.60;;
1436;SDS011;712;51.026;13.792;2024-03-23T11:22:09;5.37;;;1.70;;
1436;SDS011;712;51.026;13.792;2024-03-23T11:24:34;9.13;;;2.10;;
1436;SDS011;712;51.026;13.792;2024-03-23T11:27:00;3.83;;;0.95;;
1436;SDS011;712;51.026;13.792;2024-03-23T11:29:26;2.38;;;0.80;;
1436;SDS011;712;51.026;13.792;2024-03-23T11:31:52;0.77;;;0.30;;
1436;SDS011;712;51.026;13.792;2024-03-23T11:34:17;1.38;;;0.40;;
1436;SDS011;712;51.026;13.792;2024-03-23T11:36:43;4.38;;;1.15;;
1436;SDS011;712;51.026;13.792;2024-03-23T11:39:14;2.88;;;0.90;;
1436;SDS011;712;51.026;13.792;2024-03-23T11:41:51;1.60;;;0.40;;
1436;SDS011;712;51.026;13.792;2024-03-23T11:44:17;0.57;;;0.20;;
1436;SDS011;712;51.026;13.792;2024-03-23T11:46:42;1.75;;;0.40;;
1436;SDS011;712;51.026;13.792;2024-03-23T11:49:19;1.40;;;0.30;;
1436;SDS011;712;51.026;13.792;2024-03-23T11:51:44;0.85;;;0.43;;
1436;SDS011;712;51.026;13.792;2024-03-23T11:54:09;2.30;;;0.63;;
1436;SDS011;712;51.026;13.792;2024-03-23T11:56:34;4.20;;;0.83;;
1436;SDS011;712;51.026;13.792;2024-03-23T11:58:59;4.65;;;0.82;;
1436;SDS011;712;51.026;13.792;2024-03-23T12:01:24;2.40;;;0.60;;
1436;SDS011;712;51.026;13.792;2024-03-23T12:03:50;1.70;;;0.50;;
1436;SDS011;712;51.026;13.792;2024-03-23T12:06:19;3.27;;;0.80;;
1436;SDS011;712;51.026;13.792;2024-03-23T12:08:44;1.67;;;0.60;;
1436;SDS011;712;51.026;13.792;2024-03-23T12:11:10;1.20;;;0.43;;
1436;SDS011;712;51.026;13.792;2024-03-23T12:18:37;1.45;;;0.60;;
1436;SDS011;712;51.026;13.792;2024-03-23T12:21:02;4.25;;;0.90;;
1436;SDS011;712;51.026;13.792;2024-03-23T12:23:28;2.55;;;0.80;;
1436;SDS011;712;51.026;13.792;2024-03-23T12:25:53;1.75;;;0.70;;
1436;SDS011;712;51.026;13.792;2024-03-23T12:28:18;2.10;;;0.80;;
1436;SDS011;712;51.026;13.792;2024-03-23T12:30:43;2.03;;;0.70;;
1436;SDS011;712;51.026;13.792;2024-03-23T12:33:08;3.93;;;1.10;;
1436;SDS011;712;51.026;13.792;2024-03-23T12:35:34;5.47;;;1.60;;
1436;SDS011;712;51.026;13.792;2024-03-23T12:37:59;2.63;;;0.80;;
1436;SDS011;712;51.026;13.792;2024-03-23T12:40:24;3.00;;;0.70;;
1436;SDS011;712;51.026;13.792;2024-03-23T12:42:49;2.40;;;0.70;;
1436;SDS011;712;51.026;13.792;2024-03-23T12:45:15;3.13;;;1.07;;
1436;SDS011;712;51.026;13.792;2024-03-23T12:47:40;3.38;;;0.90;;
1436;SDS011;712;51.026;13.792;2024-03-23T12:50:05;2.80;;;0.93;;
1436;SDS011;712;51.026;13.792;2024-03-23T12:54:57;3.10;;;1.10;;
1436;SDS011;712;51.026;13.792;2024-03-23T12:57:23;2.73;;;0.90;;
1436;SDS011;712;51.026;13.792;2024-03-23T12:59:49;3.25;;;1.30;;
1436;SDS011;712;51.026;13.792;2024-03-23T13:02:16;4.05;;;1.85;;
1436;SDS011;712;51.026;13.792;2024-03-23T13:04:41;3.70;;;1.52;;
1436;SDS011;712;51.026;13.792;2024-03-23T13:07:07;3.58;;;1.30;;
1436;SDS011;712;51.026;13.792;2024-03-23T13:09:32;3.67;;;1.75;;
1436;SDS011;712;51.026;13.792;2024-03-23T13:11:57;3.50;;;1.60;;
1436;SDS011;712;51.026;13.792;2024-03-23T13:14:22;4.00;;;1.55;;
1436;SDS011;712;51.026;13.792;2024-03-23T13:16:48;3.50;;;1.70;;
1436;SDS011;712;51.026;13.792;2024-03-23T13:19:13;3.17;;;1.40;;
1436;SDS011;712;51.026;13.792;2024-03-23T13:21:38;3.70;;;1.40;;
1436;SDS011;712;51.026;13.792;2024-03-23T13:24:04;7.63;;;3.10;;
1436;SDS011;712;51.026;13.792;2024-03-23T13:26:29;4.82;;;2.20;;
1436;SDS011;712;51.026;13.792;2024-03-23T13:28:54;4.23;;;1.80;;
1436;SDS011;712;51.026;13.792;2024-03-23T13:31:19;3.50;;;1.60;;
1436;SDS011;712;51.026;13.792;2024-03-23T13:33:44;5.40;;;1.73;;
1436;SDS011;712;51.026;13.792;2024-03-23T13:36:10;4.53;;;2.10;;
1436;SDS011;712;51.026;13.792;2024-03-23T13:38:35;4.23;;;1.57;;
1436;SDS011;712;51.026;13.792;2024-03-23T13:41:01;3.30;;;1.50;;
1436;SDS011;712;51.026;13.792;2024-03-23T13:43:27;4.82;;;1.30;;
1436;SDS011;712;51.026;13.792;2024-03-23T13:45:53;3.78;;;1.40;;
1436;SDS011;712;51.026;13.792;2024-03-23T13:48:22;2.95;;;1.25;;
1436;SDS011;712;51.026;13.792;2024-03-23T13:51:02;4.32;;;1.70;;
1436;SDS011;712;51.026;13.792;2024-03-23T13:53:27;4.32;;;1.50;;
1436;SDS011;712;51.026;13.792;2024-03-23T13:55:53;4.68;;;1.42;;
1436;SDS011;712;51.026;13.792;2024-03-23T13:58:18;6.50;;;2.50;;
1436;SDS011;712;51.026;13.792;2024-03-23T14:00:44;4.73;;;1.30;;
1436;SDS011;712;51.026;13.792;2024-03-23T14:03:09;4.50;;;1.30;;
1436;SDS011;712;51.026;13.792;2024-03-23T14:05:34;6.32;;;1.27;;
1436;SDS011;712;51.026;13.792;2024-03-23T14:08:00;5.80;;;1.63;;
1436;SDS011;712;51.026;13.792;2024-03-23T14:10:25;5.93;;;1.20;;
1436;SDS011;712;51.026;13.792;2024-03-23T14:12:50;6.53;;;1.20;;
1436;SDS011;712;51.026;13.792;2024-03-23T14:15:15;3.95;;;1.10;;
1436;SDS011;712;51.026;13.792;2024-03-23T14:17:40;4.60;;;1.08;;
1436;SDS011;712;51.026;13.792;2024-03-23T14:20:06;5.70;;;1.10;;
1436;SDS011;712;51.026;13.792;2024-03-23T14:22:34;3.15;;;0.88;;
1436;SDS011;712;51.026;13.792;2024-03-23T14:24:59;3.80;;;1.08;;
1436;SDS011;712;51.026;13.792;2024-03-23T14:27:24;4.35;;;1.00;;
1436;SDS011;712;51.026;13.792;2024-03-23T14:29:49;4.73;;;1.00;;
1436;SDS011;712;51.026;13.792;2024-03-23T14:32:15;5.47;;;0.98;;
1436;SDS011;712;51.026;13.792;2024-03-23T14:34:41;5.23;;;1.33;;
1436;SDS011;712;51.026;13.792;2024-03-23T14:37:06;6.32;;;1.55;;
1436;SDS011;712;51.026;13.792;2024-03-23T14:39:31;5.90;;;1.40;;
1436;SDS011;712;51.026;13.792;2024-03-23T14:41:56;4.53;;;1.10;;
1436;SDS011;712;51.026;13.792;2024-03-23T14:44:22;4.65;;;1.08;;
1436;SDS011;712;51.026;13.792;2024-03-23T14:46:47;5.77;;;1.37;;
1436;SDS011;712;51.026;13.792;2024-03-23T14:49:14;4.73;;;1.23;;
1436;SDS011;712;51.026;13.792;2024-03-23T14:51:41;6.93;;;1.55;;
1436;SDS011;712;51.026;13.792;2024-03-23T14:54:06;7.65;;;1.60;;
1436;SDS011;712;51.026;13.792;2024-03-23T14:56:33;5.38;;;1.30;;
1436;SDS011;712;51.026;13.792;2024-03-23T14:58:59;6.60;;;1.73;;
1436;SDS011;712;51.026;13.792;2024-03-23T15:01:24;6.13;;;1.20;;
1436;SDS011;712;51.026;13.792;2024-03-23T15:03:50;6.35;;;1.15;;
1436;SDS011;712;51.026;13.792;2024-03-23T15:06:18;5.05;;;1.30;;
1436;SDS011;712;51.026;13.792;2024-03-23T15:08:43;4.85;;;1.27;;
1436;SDS011;712;51.026;13.792;2024-03-23T15:11:08;4.40;;;1.30;;
1436;SDS011;712;51.026;13.792;2024-03-23T15:13:34;4.70;;;1.40;;
1436;SDS011;712;51.026;13.792;2024-03-23T15:15:59;5.22;;;1.30;;
1436;SDS011;712;51.026;13.792;2024-03-23T15:18:24;5.82;;;1.50;;
1436;SDS011;712;51.026;13.792;2024-03-23T15:23:19;5.77;;;1.40;;
1436;SDS011;712;51.026;13.792;2024-03-23T15:25:45;5.13;;;1.70;;
1436;SDS011;712;51.026;13.792;2024-03-23T15:28:10;5.45;;;1.42;;
1436;SDS011;712;51.026;13.792;2024-03-23T15:30:35;4.43;;;1.10;;
1436;SDS011;712;51.026;13.792;2024-03-23T15:33:01;4.05;;;1.30;;
1436;SDS011;712;51.026;13.792;2024-03-23T15:35:27;5.95;;;1.50;;
1436;SDS011;712;51.026;13.792;2024-03-23T15:37:52;9.93;;;1.90;;
1436;SDS011;712;51.026;13.792;2024-03-23T15:40:17;5.07;;;1.20;;
1436;SDS011;712;51.026;13.792;2024-03-23T15:42:43;4.18;;;1.20;;
1436;SDS011;712;51.026;13.792;2024-03-23T15:45:08;8.73;;;2.13;;
1436;SDS011;712;51.026;13.792;2024-03-23T15:47:35;6.72;;;1.70;;
1436;SDS011;712;51.026;13.792;2024-03-23T15:50:00;5.72;;;1.35;;
1436;SDS011;712;51.026;13.792;2024-03-23T15:52:25;4.80;;;1.20;;
1436;SDS011;712;51.026;13.792;2024-03-23T15:54:50;6.47;;;1.40;;
1436;SDS011;712;51.026;13.792;2024-03-23T15:57:17;4.85;;;1.35;;
1436;SDS011;712;51.026;13.792;2024-03-23T15:59:43;4.57;;;1.20;;
1436;SDS011;712;51.026;13.792;2024-03-23T16:02:09;7.97;;;1.60;;
1436;SDS011;712;51.026;13.792;2024-03-23T16:04:34;5.30;;;1.40;;